Portada
METAR-TAF:

METAR-TAF

Aeroports :

Libreville, Gabon

latitud: 00-27N, longitud: 009-25E, altitud: 12 m

Observació

L'informe es va fer fa 32 minuts, a les 14:00 UTC
Vent 6 kt del Oest/Sud-Oest
Temperatura 29°C
Humitat 74%
Pressió 1010 hPa
Visibilitat 10 km o més
Núvols disperses a una alçada de 1500 ft

METAR: FOOL 241400Z 24006KT 9999 SCT015 29/24 Q1010 NOSIG

Hora: 15:32 (14:32 UTC)

Pronòstic

L'informe es va fer fa 3 hores i 32 minuts, a les 11:00 UTC
Pronòstic vàlid del 24 a les 12 UTC al 25 a les 18 UTC
Vent 7 kt del Sud/Sud-Oest
Visibilitat 10 km o més
Núvols disperses a una alçada de 1100 ft
Cel ennuvolat a una alçada de 3500 ft
Probabilitat 30% :
Temporalment
l' 25 a les 00 UTC al 25 a les 06 UTC
Visibilitat: 4000 m
pluja

TAF: FOOL 241100Z 2412/2518 20007KT 9999 SCT011 BKN035 PROB30 TEMPO 2500/2506 4000 RA

Observacions i pronòstics meteorològics de més de 4000 aeroports (METAR i TAF).

Les estacions disponibles són els punts grocs i vermells al mapa.

Posi el ratolí al punt desitjat per veure el nom de l'estació.

Feu clic per veure les observacions i els pronòstics meteorològics.

Per canviar el mapa: feu clic els botons verds amb una creu de color negre per apropar; al botó verd amb un guió per allunyar la imatge; o en les fletxes verdes per a mapes adjacents.


METAR-TAF: